sensor_id;sensor_type;location;lat;lon;timestamp;pressure;altitude;pressure_sealevel;temperature;humidity
13867;BME280;7003;46.982;15.248;2023-05-10T00:00:41;97142.84;;;7.25;100.00
13867;BME280;7003;46.982;15.248;2023-05-10T00:03:11;97146.50;;;7.15;100.00
13867;BME280;7003;46.982;15.248;2023-05-10T00:05:40;97144.28;;;7.09;100.00
13867;BME280;7003;46.982;15.248;2023-05-10T00:08:13;97135.69;;;7.25;100.00
13867;BME280;7003;46.982;15.248;2023-05-10T00:10:47;97129.69;;;7.42;100.00
13867;BME280;7003;46.982;15.248;2023-05-10T00:13:25;97131.44;;;7.47;100.00
13867;BME280;7003;46.982;15.248;2023-05-10T00:15:55;97133.44;;;7.41;100.00
13867;BME280;7003;46.982;15.248;2023-05-10T00:18:23;97119.22;;;7.37;100.00
13867;BME280;7003;46.982;15.248;2023-05-10T00:20:56;97117.81;;;7.31;100.00
13867;BME280;7003;46.982;15.248;2023-05-10T00:23:29;97114.41;;;7.08;100.00
13867;BME280;7003;46.982;15.248;2023-05-10T00:25:58;97115.16;;;7.00;100.00
13867;BME280;7003;46.982;15.248;2023-05-10T00:28:28;97114.94;;;6.88;100.00
13867;BME280;7003;46.982;15.248;2023-05-10T00:31:09;97115.16;;;6.78;100.00
13867;BME280;7003;46.982;15.248;2023-05-10T00:33:41;97111.09;;;6.72;100.00
13867;BME280;7003;46.982;15.248;2023-05-10T00:36:11;97106.50;;;6.86;100.00
13867;BME280;7003;46.982;15.248;2023-05-10T00:38:42;97108.06;;;6.87;100.00
13867;BME280;7003;46.982;15.248;2023-05-10T00:41:19;97102.16;;;6.90;100.00
13867;BME280;7003;46.982;15.248;2023-05-10T00:43:49;97100.19;;;6.95;100.00
13867;BME280;7003;46.982;15.248;2023-05-10T00:46:20;97095.97;;;6.94;100.00
13867;BME280;7003;46.982;15.248;2023-05-10T00:48:51;97093.50;;;6.98;100.00
13867;BME280;7003;46.982;15.248;2023-05-10T00:51:24;97092.69;;;6.89;100.00
13867;BME280;7003;46.982;15.248;2023-05-10T00:53:52;97090.34;;;6.87;100.00
13867;BME280;7003;46.982;15.248;2023-05-10T00:56:26;97090.56;;;7.00;100.00
13867;BME280;7003;46.982;15.248;2023-05-10T00:58:58;97087.28;;;6.94;100.00
13867;BME280;7003;46.982;15.248;2023-05-10T01:01:25;97085.13;;;6.96;100.00
13867;BME280;7003;46.982;15.248;2023-05-10T01:03:54;97090.66;;;6.86;100.00
13867;BME280;7003;46.982;15.248;2023-05-10T01:06:22;97083.44;;;6.78;100.00
13867;BME280;7003;46.982;15.248;2023-05-10T01:08:53;97082.72;;;6.86;100.00
13867;BME280;7003;46.982;15.248;2023-05-10T01:11:20;97084.03;;;6.75;100.00
13867;BME280;7003;46.982;15.248;2023-05-10T01:13:52;97084.03;;;6.75;100.00
13867;BME280;7003;46.982;15.248;2023-05-10T01:16:22;97076.53;;;6.68;100.00
13867;BME280;7003;46.982;15.248;2023-05-10T01:18:53;97073.28;;;6.49;100.00
13867;BME280;7003;46.982;15.248;2023-05-10T01:21:29;97072.56;;;6.35;100.00
13867;BME280;7003;46.982;15.248;2023-05-10T01:24:37;97077.09;;;6.43;100.00
13867;BME280;7003;46.982;15.248;2023-05-10T01:27:25;97075.28;;;6.66;100.00
13867;BME280;7003;46.982;15.248;2023-05-10T01:33:11;97072.09;;;6.55;100.00
13867;BME280;7003;46.982;15.248;2023-05-10T01:35:50;97065.09;;;6.59;100.00
13867;BME280;7003;46.982;15.248;2023-05-10T01:38:24;97067.34;;;6.66;100.00
13867;BME280;7003;46.982;15.248;2023-05-10T01:41:04;97066.59;;;6.74;100.00
13867;BME280;7003;46.982;15.248;2023-05-10T01:43:41;97066.88;;;6.64;100.00
13867;BME280;7003;46.982;15.248;2023-05-10T01:46:14;97060.97;;;6.44;100.00
13867;BME280;7003;46.982;15.248;2023-05-10T01:48:48;97060.16;;;6.22;100.00
13867;BME280;7003;46.982;15.248;2023-05-10T01:51:23;97056.38;;;6.14;100.00
13867;BME280;7003;46.982;15.248;2023-05-10T01:53:58;97057.59;;;6.30;100.00
13867;BME280;7003;46.982;15.248;2023-05-10T01:56:33;97057.44;;;6.27;100.00
13867;BME280;7003;46.982;15.248;2023-05-10T01:59:07;97051.63;;;6.02;100.00
13867;BME280;7003;46.982;15.248;2023-05-10T02:01:36;97045.94;;;6.09;100.00
13867;BME280;7003;46.982;15.248;2023-05-10T02:04:06;97044.84;;;6.10;100.00
13867;BME280;7003;46.982;15.248;2023-05-10T02:06:34;97056.81;;;5.94;100.00
13867;BME280;7003;46.982;15.248;2023-05-10T02:09:03;97049.44;;;6.04;100.00
13867;BME280;7003;46.982;15.248;2023-05-10T02:11:33;97053.41;;;5.93;100.00
13867;BME280;7003;46.982;15.248;2023-05-10T02:14:01;97058.06;;;5.96;100.00
13867;BME280;7003;46.982;15.248;2023-05-10T02:16:31;97053.78;;;5.87;100.00
13867;BME280;7003;46.982;15.248;2023-05-10T02:19:01;97053.00;;;5.86;100.00
13867;BME280;7003;46.982;15.248;2023-05-10T02:21:39;97051.91;;;6.01;100.00
13867;BME280;7003;46.982;15.248;2023-05-10T02:24:07;97042.91;;;6.02;100.00
13867;BME280;7003;46.982;15.248;2023-05-10T02:26:36;97041.47;;;5.96;100.00
13867;BME280;7003;46.982;15.248;2023-05-10T02:29:05;97040.38;;;5.97;100.00
13867;BME280;7003;46.982;15.248;2023-05-10T02:31:34;97041.16;;;5.97;100.00
13867;BME280;7003;46.982;15.248;2023-05-10T02:34:05;97041.72;;;6.08;100.00
13867;BME280;7003;46.982;15.248;2023-05-10T02:36:33;97035.00;;;6.02;100.00
13867;BME280;7003;46.982;15.248;2023-05-10T02:39:03;97035.41;;;5.95;100.00
13867;BME280;7003;46.982;15.248;2023-05-10T02:41:35;97039.81;;;5.86;100.00
13867;BME280;7003;46.982;15.248;2023-05-10T02:44:06;97030.44;;;5.80;100.00
13867;BME280;7003;46.982;15.248;2023-05-10T02:46:35;97035.59;;;5.85;100.00
13867;BME280;7003;46.982;15.248;2023-05-10T02:49:05;97039.13;;;5.67;100.00
13867;BME280;7003;46.982;15.248;2023-05-10T02:51:35;97036.50;;;5.80;100.00
13867;BME280;7003;46.982;15.248;2023-05-10T02:54:09;97034.47;;;5.64;100.00
13867;BME280;7003;46.982;15.248;2023-05-10T02:56:43;97037.00;;;5.69;100.00
13867;BME280;7003;46.982;15.248;2023-05-10T02:59:14;97040.50;;;5.78;100.00
13867;BME280;7003;46.982;15.248;2023-05-10T03:01:43;97044.78;;;5.74;100.00
13867;BME280;7003;46.982;15.248;2023-05-10T03:04:11;97032.09;;;5.76;100.00
13867;BME280;7003;46.982;15.248;2023-05-10T03:06:39;97038.34;;;5.66;100.00
13867;BME280;7003;46.982;15.248;2023-05-10T03:09:10;97039.50;;;5.74;100.00
13867;BME280;7003;46.982;15.248;2023-05-10T03:11:49;97037.19;;;5.59;100.00
13867;BME280;7003;46.982;15.248;2023-05-10T03:14:25;97045.69;;;5.69;100.00
13867;BME280;7003;46.982;15.248;2023-05-10T03:17:03;97043.25;;;5.59;100.00
13867;BME280;7003;46.982;15.248;2023-05-10T03:19:42;97043.34;;;5.68;100.00
13867;BME280;7003;46.982;15.248;2023-05-10T03:22:13;97041.38;;;5.60;100.00
13867;BME280;7003;46.982;15.248;2023-05-10T03:24:52;97047.75;;;5.45;100.00
13867;BME280;7003;46.982;15.248;2023-05-10T03:27:25;97045.81;;;5.37;100.00
13867;BME280;7003;46.982;15.248;2023-05-10T03:29:54;97037.59;;;5.25;100.00
13867;BME280;7003;46.982;15.248;2023-05-10T03:32:25;97041.50;;;5.14;100.00
13867;BME280;7003;46.982;15.248;2023-05-10T03:34:56;97049.91;;;5.16;100.00
13867;BME280;7003;46.982;15.248;2023-05-10T03:37:24;97036.81;;;5.24;100.00
13867;BME280;7003;46.982;15.248;2023-05-10T03:39:56;97035.81;;;5.07;100.00
13867;BME280;7003;46.982;15.248;2023-05-10T03:42:24;97045.13;;;5.31;100.00
13867;BME280;7003;46.982;15.248;2023-05-10T03:44:54;97032.22;;;5.30;100.00
13867;BME280;7003;46.982;15.248;2023-05-10T03:47:22;97043.34;;;5.27;100.00
13867;BME280;7003;46.982;15.248;2023-05-10T03:49:52;97043.63;;;5.12;100.00
13867;BME280;7003;46.982;15.248;2023-05-10T03:52:22;97038.56;;;5.01;100.00
13867;BME280;7003;46.982;15.248;2023-05-10T03:54:50;97038.56;;;5.01;100.00
13867;BME280;7003;46.982;15.248;2023-05-10T03:57:22;97041.97;;;5.02;100.00
13867;BME280;7003;46.982;15.248;2023-05-10T03:59:50;97041.41;;;5.32;100.00
13867;BME280;7003;46.982;15.248;2023-05-10T04:02:18;97044.63;;;5.16;100.00
13867;BME280;7003;46.982;15.248;2023-05-10T04:04:46;97044.34;;;5.31;100.00
13867;BME280;7003;46.982;15.248;2023-05-10T04:07:16;97053.59;;;5.42;100.00
13867;BME280;7003;46.982;15.248;2023-05-10T04:09:45;97050.78;;;5.25;100.00
13867;BME280;7003;46.982;15.248;2023-05-10T04:12:16;97056.53;;;5.27;100.00
13867;BME280;7003;46.982;15.248;2023-05-10T04:14:45;97054.22;;;5.25;100.00
13867;BME280;7003;46.982;15.248;2023-05-10T04:17:14;97061.22;;;5.30;100.00
13867;BME280;7003;46.982;15.248;2023-05-10T04:19:44;97061.06;;;5.40;100.00
13867;BME280;7003;46.982;15.248;2023-05-10T04:22:15;97064.66;;;5.44;100.00
13867;BME280;7003;46.982;15.248;2023-05-10T04:24:43;97073.94;;;5.55;100.00
13867;BME280;7003;46.982;15.248;2023-05-10T04:27:13;97060.84;;;5.64;100.00
13867;BME280;7003;46.982;15.248;2023-05-10T04:29:41;97062.31;;;5.70;100.00
13867;BME280;7003;46.982;15.248;2023-05-10T04:32:11;97061.72;;;5.59;100.00
13867;BME280;7003;46.982;15.248;2023-05-10T04:34:41;97062.59;;;5.68;100.00
13867;BME280;7003;46.982;15.248;2023-05-10T04:37:09;97066.50;;;5.71;100.00
13867;BME280;7003;46.982;15.248;2023-05-10T04:39:37;97065.69;;;5.84;100.00
13867;BME280;7003;46.982;15.248;2023-05-10T04:42:08;97070.81;;;5.94;100.00
13867;BME280;7003;46.982;15.248;2023-05-10T04:44:36;97066.94;;;6.14;100.00
13867;BME280;7003;46.982;15.248;2023-05-10T04:47:04;97067.22;;;6.26;100.00
13867;BME280;7003;46.982;15.248;2023-05-10T04:49:34;97069.50;;;6.41;100.00
13867;BME280;7003;46.982;15.248;2023-05-10T04:52:02;97073.22;;;6.40;100.00
13867;BME280;7003;46.982;15.248;2023-05-10T04:54:32;97076.09;;;6.52;100.00
13867;BME280;7003;46.982;15.248;2023-05-10T04:57:00;97067.66;;;6.64;100.00
13867;BME280;7003;46.982;15.248;2023-05-10T04:59:31;97067.34;;;6.66;100.00
13867;BME280;7003;46.982;15.248;2023-05-10T05:01:59;97073.28;;;6.71;100.00
13867;BME280;7003;46.982;15.248;2023-05-10T05:04:27;97067.34;;;6.88;100.00
13867;BME280;7003;46.982;15.248;2023-05-10T05:06:59;97069.69;;;7.29;100.00
13867;BME280;7003;46.982;15.248;2023-05-10T05:09:29;97067.38;;;7.76;100.00
13867;BME280;7003;46.982;15.248;2023-05-10T05:11:58;97073.50;;;8.02;100.00
13867;BME280;7003;46.982;15.248;2023-05-10T05:14:28;97072.63;;;8.32;100.00
13867;BME280;7003;46.982;15.248;2023-05-10T05:16:57;97071.84;;;8.58;100.00
13867;BME280;7003;46.982;15.248;2023-05-10T05:19:25;97073.84;;;8.78;100.00
13867;BME280;7003;46.982;15.248;2023-05-10T05:21:53;97070.47;;;9.15;100.00
13867;BME280;7003;46.982;15.248;2023-05-10T05:24:23;97077.13;;;9.30;100.00
13867;BME280;7003;46.982;15.248;2023-05-10T05:26:50;97077.81;;;9.56;100.00
13867;BME280;7003;46.982;15.248;2023-05-10T05:29:20;97075.69;;;9.79;100.00
13867;BME280;7003;46.982;15.248;2023-05-10T05:31:48;97083.41;;;9.93;100.00
13867;BME280;7003;46.982;15.248;2023-05-10T05:34:15;97083.38;;;10.01;100.00
13867;BME280;7003;46.982;15.248;2023-05-10T05:36:45;97087.88;;;10.30;100.00
13867;BME280;7003;46.982;15.248;2023-05-10T05:39:15;97084.38;;;10.38;100.00
13867;BME280;7003;46.982;15.248;2023-05-10T05:41:47;97083.94;;;10.57;100.00
13867;BME280;7003;46.982;15.248;2023-05-10T05:44:16;97092.47;;;10.63;100.00
13867;BME280;7003;46.982;15.248;2023-05-10T05:46:46;97084.69;;;10.78;100.00
13867;BME280;7003;46.982;15.248;2023-05-10T05:49:20;97086.88;;;10.97;100.00
13867;BME280;7003;46.982;15.248;2023-05-10T05:51:48;97084.19;;;10.97;100.00
13867;BME280;7003;46.982;15.248;2023-05-10T05:54:16;97084.69;;;11.11;100.00
13867;BME280;7003;46.982;15.248;2023-05-10T05:56:44;97090.94;;;11.28;100.00
13867;BME280;7003;46.982;15.248;2023-05-10T05:59:15;97085.09;;;11.58;100.00
13867;BME280;7003;46.982;15.248;2023-05-10T06:01:43;97083.66;;;11.61;100.00
13867;BME280;7003;46.982;15.248;2023-05-10T06:04:11;97090.44;;;11.83;100.00
13867;BME280;7003;46.982;15.248;2023-05-10T06:06:41;97086.00;;;11.75;100.00
13867;BME280;7003;46.982;15.248;2023-05-10T06:09:08;97093.41;;;11.69;100.00
13867;BME280;7003;46.982;15.248;2023-05-10T06:11:36;97093.97;;;12.11;100.00
13867;BME280;7003;46.982;15.248;2023-05-10T06:14:06;97095.41;;;12.21;100.00
13867;BME280;7003;46.982;15.248;2023-05-10T06:16:36;97094.19;;;12.58;100.00
13867;BME280;7003;46.982;15.248;2023-05-10T06:19:06;97096.31;;;12.93;100.00
13867;BME280;7003;46.982;15.248;2023-05-10T06:21:33;97100.03;;;13.04;100.00
13867;BME280;7003;46.982;15.248;2023-05-10T06:24:01;97093.28;;;13.22;100.00
13867;BME280;7003;46.982;15.248;2023-05-10T06:26:29;97100.88;;;13.36;100.00
13867;BME280;7003;46.982;15.248;2023-05-10T06:28:59;97100.44;;;13.34;100.00
13867;BME280;7003;46.982;15.248;2023-05-10T06:31:27;97098.66;;;13.10;100.00
13867;BME280;7003;46.982;15.248;2023-05-10T06:33:55;97105.25;;;13.28;100.00
13867;BME280;7003;46.982;15.248;2023-05-10T06:36:26;97100.88;;;13.52;100.00
13867;BME280;7003;46.982;15.248;2023-05-10T06:38:55;97099.94;;;13.60;100.00
13867;BME280;7003;46.982;15.248;2023-05-10T06:41:23;97094.50;;;13.72;100.00
13867;BME280;7003;46.982;15.248;2023-05-10T06:43:51;97090.25;;;13.86;100.00
13867;BME280;7003;46.982;15.248;2023-05-10T06:46:19;97091.00;;;14.03;100.00
13867;BME280;7003;46.982;15.248;2023-05-10T06:48:46;97090.22;;;14.02;100.00
13867;BME280;7003;46.982;15.248;2023-05-10T06:51:15;97090.94;;;13.99;100.00
13867;BME280;7003;46.982;15.248;2023-05-10T06:53:45;97092.66;;;14.07;100.00
13867;BME280;7003;46.982;15.248;2023-05-10T06:56:13;97088.59;;;14.13;100.00
13867;BME280;7003;46.982;15.248;2023-05-10T06:58:40;97082.59;;;14.20;100.00
13867;BME280;7003;46.982;15.248;2023-05-10T07:01:08;97082.59;;;14.20;100.00
13867;BME280;7003;46.982;15.248;2023-05-10T07:03:38;97085.94;;;14.33;100.00
13867;BME280;7003;46.982;15.248;2023-05-10T07:06:08;97082.03;;;14.46;100.00
13867;BME280;7003;46.982;15.248;2023-05-10T07:08:37;97087.47;;;14.49;100.00
13867;BME280;7003;46.982;15.248;2023-05-10T07:11:06;97079.56;;;14.95;100.00
13867;BME280;7003;46.982;15.248;2023-05-10T07:13:36;97078.75;;;15.56;100.00
13867;BME280;7003;46.982;15.248;2023-05-10T07:16:10;97076.19;;;15.63;100.00
13867;BME280;7003;46.982;15.248;2023-05-10T07:18:37;97074.41;;;15.70;100.00
13867;BME280;7003;46.982;15.248;2023-05-10T07:21:07;97079.38;;;15.72;100.00
13867;BME280;7003;46.982;15.248;2023-05-10T07:23:35;97081.78;;;15.54;100.00
13867;BME280;7003;46.982;15.248;2023-05-10T07:26:06;97084.28;;;15.66;100.00
13867;BME280;7003;46.982;15.248;2023-05-10T07:28:35;97082.22;;;15.83;100.00
13867;BME280;7003;46.982;15.248;2023-05-10T07:31:05;97078.22;;;15.27;100.00
13867;BME280;7003;46.982;15.248;2023-05-10T07:33:33;97090.06;;;13.95;100.00
13867;BME280;7003;46.982;15.248;2023-05-10T07:36:04;97087.06;;;13.97;100.00
13867;BME280;7003;46.982;15.248;2023-05-10T07:38:31;97090.63;;;13.85;100.00
13867;BME280;7003;46.982;15.248;2023-05-10T07:40:59;97085.84;;;14.45;100.00
13867;BME280;7003;46.982;15.248;2023-05-10T07:43:28;97086.19;;;15.01;100.00
13867;BME280;7003;46.982;15.248;2023-05-10T07:45:58;97084.13;;;15.14;100.00
13867;BME280;7003;46.982;15.248;2023-05-10T07:48:26;97090.91;;;15.08;100.00
13867;BME280;7003;46.982;15.248;2023-05-10T07:50:54;97083.25;;;15.29;100.00
13867;BME280;7003;46.982;15.248;2023-05-10T07:53:21;97086.13;;;14.97;100.00
13867;BME280;7003;46.982;15.248;2023-05-10T07:55:50;97081.00;;;15.31;100.00
13867;BME280;7003;46.982;15.248;2023-05-10T07:58:17;97077.22;;;15.35;100.00
13867;BME280;7003;46.982;15.248;2023-05-10T08:00:46;97086.13;;;14.40;100.00
13867;BME280;7003;46.982;15.248;2023-05-10T08:03:15;97083.41;;;14.55;100.00
13867;BME280;7003;46.982;15.248;2023-05-10T08:05:43;97074.72;;;14.81;100.00
13867;BME280;7003;46.982;15.248;2023-05-10T08:08:13;97078.88;;;14.79;100.00
13867;BME280;7003;46.982;15.248;2023-05-10T08:10:41;97083.88;;;14.80;100.00
13867;BME280;7003;46.982;15.248;2023-05-10T08:13:08;97084.81;;;15.11;100.00
13867;BME280;7003;46.982;15.248;2023-05-10T08:15:36;97093.44;;;14.43;100.00
13867;BME280;7003;46.982;15.248;2023-05-10T08:18:05;97087.28;;;14.77;100.00
13867;BME280;7003;46.982;15.248;2023-05-10T08:20:32;97083.28;;;15.10;100.00
13867;BME280;7003;46.982;15.248;2023-05-10T08:23:02;97080.41;;;14.99;100.00
13867;BME280;7003;46.982;15.248;2023-05-10T08:25:29;97086.09;;;15.17;100.00
13867;BME280;7003;46.982;15.248;2023-05-10T08:28:00;97087.06;;;14.32;100.00
13867;BME280;7003;46.982;15.248;2023-05-10T08:30:28;97089.66;;;14.44;100.00
13867;BME280;7003;46.982;15.248;2023-05-10T08:32:58;97085.97;;;14.90;100.00
13867;BME280;7003;46.982;15.248;2023-05-10T08:35:32;97083.91;;;15.03;100.00
13867;BME280;7003;46.982;15.248;2023-05-10T08:38:03;97081.06;;;14.73;100.00
13867;BME280;7003;46.982;15.248;2023-05-10T08:40:33;97081.84;;;14.74;100.00
13867;BME280;7003;46.982;15.248;2023-05-10T08:43:05;97085.78;;;15.22;100.00
13867;BME280;7003;46.982;15.248;2023-05-10T08:45:38;97074.06;;;15.53;100.00
13867;BME280;7003;46.982;15.248;2023-05-10T08:48:07;97082.44;;;15.70;100.00
13867;BME280;7003;46.982;15.248;2023-05-10T08:50:38;97075.75;;;15.84;98.42
13867;BME280;7003;46.982;15.248;2023-05-10T08:53:08;97083.22;;;15.97;100.00
13867;BME280;7003;46.982;15.248;2023-05-10T08:55:40;97086.53;;;16.13;96.52
13867;BME280;7003;46.982;15.248;2023-05-10T08:58:09;97085.13;;;16.23;92.98
13867;BME280;7003;46.982;15.248;2023-05-10T09:00:36;97077.50;;;16.25;84.03
13867;BME280;7003;46.982;15.248;2023-05-10T09:03:05;97075.28;;;16.34;83.21
13867;BME280;7003;46.982;15.248;2023-05-10T09:05:33;97066.88;;;16.62;84.17
13867;BME280;7003;46.982;15.248;2023-05-10T09:08:02;97065.56;;;16.52;82.07
13867;BME280;7003;46.982;15.248;2023-05-10T09:10:29;97070.66;;;16.91;85.15
13867;BME280;7003;46.982;15.248;2023-05-10T09:12:58;97072.94;;;17.26;80.35
13867;BME280;7003;46.982;15.248;2023-05-10T09:15:26;97069.34;;;17.15;78.11
13867;BME280;7003;46.982;15.248;2023-05-10T09:17:54;97069.81;;;16.57;75.55
13867;BME280;7003;46.982;15.248;2023-05-10T09:20:24;97070.50;;;16.80;75.26
13867;BME280;7003;46.982;15.248;2023-05-10T09:22:54;97075.47;;;17.12;75.61
13867;BME280;7003;46.982;15.248;2023-05-10T09:25:23;97074.09;;;17.28;72.35
13867;BME280;7003;46.982;15.248;2023-05-10T09:28:12;97072.69;;;17.42;75.43
13867;BME280;7003;46.982;15.248;2023-05-10T09:30:42;97072.03;;;17.55;71.05
13867;BME280;7003;46.982;15.248;2023-05-10T09:33:12;97066.84;;;17.33;67.06
13867;BME280;7003;46.982;15.248;2023-05-10T09:35:42;97067.63;;;17.37;67.05
13867;BME280;7003;46.982;15.248;2023-05-10T09:38:12;97072.44;;;17.57;70.05
13867;BME280;7003;46.982;15.248;2023-05-10T09:40:52;97071.47;;;17.76;67.43
13867;BME280;7003;46.982;15.248;2023-05-10T09:43:25;97064.00;;;17.59;69.87
13867;BME280;7003;46.982;15.248;2023-05-10T09:45:53;97066.88;;;17.80;65.73
13867;BME280;7003;46.982;15.248;2023-05-10T09:48:23;97055.78;;;17.85;66.35
13867;BME280;7003;46.982;15.248;2023-05-10T09:50:56;97059.88;;;17.65;61.16
13867;BME280;7003;46.982;15.248;2023-05-10T09:53:27;97049.66;;;17.92;61.70
13867;BME280;7003;46.982;15.248;2023-05-10T09:55:56;97057.84;;;18.10;61.59
13867;BME280;7003;46.982;15.248;2023-05-10T09:58:26;97050.97;;;18.16;59.65
13867;BME280;7003;46.982;15.248;2023-05-10T10:00:54;97044.88;;;18.26;62.26
13867;BME280;7003;46.982;15.248;2023-05-10T10:03:25;97051.78;;;18.23;54.78
13867;BME280;7003;46.982;15.248;2023-05-10T10:05:55;97045.31;;;18.38;55.70
13867;BME280;7003;46.982;15.248;2023-05-10T10:08:26;97048.38;;;18.37;60.96
13867;BME280;7003;46.982;15.248;2023-05-10T10:10:57;97038.50;;;17.90;64.05
13867;BME280;7003;46.982;15.248;2023-05-10T10:13:25;97045.53;;;18.12;64.04
13867;BME280;7003;46.982;15.248;2023-05-10T10:15:55;97052.59;;;18.31;58.28
13867;BME280;7003;46.982;15.248;2023-05-10T10:18:22;97042.72;;;18.56;56.63
13867;BME280;7003;46.982;15.248;2023-05-10T10:20:56;97042.72;;;18.56;54.06
13867;BME280;7003;46.982;15.248;2023-05-10T10:23:24;97042.06;;;18.95;55.74
13867;BME280;7003;46.982;15.248;2023-05-10T10:25:53;97038.25;;;19.20;53.83
13867;BME280;7003;46.982;15.248;2023-05-10T10:28:29;97039.06;;;19.39;52.02
13867;BME280;7003;46.982;15.248;2023-05-10T10:31:09;97036.03;;;19.51;51.47
13867;BME280;7003;46.982;15.248;2023-05-10T10:33:54;97039.31;;;18.70;50.38
13867;BME280;7003;46.982;15.248;2023-05-10T10:36:23;97039.38;;;18.95;51.36
13867;BME280;7003;46.982;15.248;2023-05-10T10:38:57;97040.84;;;18.74;55.53
13867;BME280;7003;46.982;15.248;2023-05-10T10:41:33;97035.31;;;18.39;52.80
13867;BME280;7003;46.982;15.248;2023-05-10T10:44:24;97030.09;;;17.98;56.39
13867;BME280;7003;46.982;15.248;2023-05-10T10:47:03;97031.88;;;17.77;57.03
13867;BME280;7003;46.982;15.248;2023-05-10T10:49:38;97023.44;;;17.78;56.49
13867;BME280;7003;46.982;15.248;2023-05-10T10:52:23;97026.22;;;17.92;61.86
13867;BME280;7003;46.982;15.248;2023-05-10T10:54:59;97029.16;;;17.29;66.04
13867;BME280;7003;46.982;15.248;2023-05-10T10:57:29;97023.72;;;17.66;61.99
13867;BME280;7003;46.982;15.248;2023-05-10T11:00:24;97021.84;;;18.39;63.43
13867;BME280;7003;46.982;15.248;2023-05-10T11:02:54;97017.88;;;18.15;58.26
13867;BME280;7003;46.982;15.248;2023-05-10T11:05:44;97019.38;;;19.03;58.89
13867;BME280;7003;46.982;15.248;2023-05-10T11:08:17;97016.88;;;17.72;55.83
13867;BME280;7003;46.982;15.248;2023-05-10T11:10:53;97019.41;;;17.58;65.05
13867;BME280;7003;46.982;15.248;2023-05-10T11:13:28;97019.50;;;18.30;64.63
13867;BME280;7003;46.982;15.248;2023-05-10T11:16:10;97021.81;;;18.35;59.02
13867;BME280;7003;46.982;15.248;2023-05-10T11:18:38;97014.75;;;18.06;60.29
13867;BME280;7003;46.982;15.248;2023-05-10T11:21:08;97015.00;;;18.56;59.45
13867;BME280;7003;46.982;15.248;2023-05-10T11:23:49;97008.94;;;18.91;58.66
13867;BME280;7003;46.982;15.248;2023-05-10T11:26:19;97005.91;;;19.03;64.02
13867;BME280;7003;46.982;15.248;2023-05-10T11:28:49;97008.81;;;17.76;65.08
13867;BME280;7003;46.982;15.248;2023-05-10T11:31:19;97009.00;;;17.49;59.49
13867;BME280;7003;46.982;15.248;2023-05-10T11:33:51;97007.88;;;18.12;65.40
13867;BME280;7003;46.982;15.248;2023-05-10T11:36:23;97001.41;;;18.24;64.84
13867;BME280;7003;46.982;15.248;2023-05-10T11:38:54;96998.59;;;19.14;59.89
13867;BME280;7003;46.982;15.248;2023-05-10T11:41:26;96991.28;;;19.36;59.21
13867;BME280;7003;46.982;15.248;2023-05-10T11:43:59;97008.31;;;18.28;54.59
13867;BME280;7003;46.982;15.248;2023-05-10T11:46:29;96999.38;;;19.25;54.50
13867;BME280;7003;46.982;15.248;2023-05-10T11:48:58;96994.75;;;19.18;53.17
13867;BME280;7003;46.982;15.248;2023-05-10T11:51:33;96992.81;;;19.12;53.73
13867;BME280;7003;46.982;15.248;2023-05-10T11:54:05;96997.41;;;18.97;52.97
13867;BME280;7003;46.982;15.248;2023-05-10T11:56:34;96991.69;;;19.34;56.06
13867;BME280;7003;46.982;15.248;2023-05-10T11:59:01;96982.00;;;19.97;53.95
13867;BME280;7003;46.982;15.248;2023-05-10T12:01:31;96986.13;;;20.33;54.24
13867;BME280;7003;46.982;15.248;2023-05-10T12:03:59;96982.75;;;20.01;56.13
13867;BME280;7003;46.982;15.248;2023-05-10T12:06:29;96987.81;;;19.71;54.50
13867;BME280;7003;46.982;15.248;2023-05-10T12:08:58;96984.00;;;19.57;54.24
13867;BME280;7003;46.982;15.248;2023-05-10T12:11:26;96982.78;;;19.02;54.14
13867;BME280;7003;46.982;15.248;2023-05-10T12:13:55;96979.69;;;18.93;55.90
13867;BME280;7003;46.982;15.248;2023-05-10T12:16:23;96980.88;;;19.13;57.33
13867;BME280;7003;46.982;15.248;2023-05-10T12:18:55;96976.63;;;19.69;58.37
13867;BME280;7003;46.982;15.248;2023-05-10T12:21:23;96978.84;;;20.16;58.58
13867;BME280;7003;46.982;15.248;2023-05-10T12:23:52;96978.97;;;19.56;60.79
13867;BME280;7003;46.982;15.248;2023-05-10T12:26:22;96975.88;;;19.11;56.98
13867;BME280;7003;46.982;15.248;2023-05-10T12:28:50;96979.72;;;19.14;58.43
13867;BME280;7003;46.982;15.248;2023-05-10T12:31:18;96983.22;;;19.57;56.79
13867;BME280;7003;46.982;15.248;2023-05-10T12:33:46;96971.63;;;19.71;50.92
13867;BME280;7003;46.982;15.248;2023-05-10T12:36:16;96971.63;;;19.64;53.77
13867;BME280;7003;46.982;15.248;2023-05-10T12:39:02;96977.69;;;20.07;55.09
13867;BME280;7003;46.982;15.248;2023-05-10T12:41:30;96968.06;;;20.13;58.66
13867;BME280;7003;46.982;15.248;2023-05-10T12:44:00;96969.59;;;20.07;57.97
13867;BME280;7003;46.982;15.248;2023-05-10T12:46:28;96968.13;;;19.88;54.95
13867;BME280;7003;46.982;15.248;2023-05-10T12:48:56;96971.25;;;19.62;55.60
13867;BME280;7003;46.982;15.248;2023-05-10T12:51:28;96975.88;;;19.15;57.55
13867;BME280;7003;46.982;15.248;2023-05-10T12:53:56;96980.63;;;18.24;62.97
13867;BME280;7003;46.982;15.248;2023-05-10T12:56:26;96983.66;;;17.06;62.06
13867;BME280;7003;46.982;15.248;2023-05-10T12:58:54;96977.38;;;17.36;66.86
13867;BME280;7003;46.982;15.248;2023-05-10T13:01:22;96975.41;;;17.25;71.86
13867;BME280;7003;46.982;15.248;2023-05-10T13:03:52;96976.91;;;16.79;70.01
13867;BME280;7003;46.982;15.248;2023-05-10T13:06:20;96972.25;;;17.20;72.06
13867;BME280;7003;46.982;15.248;2023-05-10T13:08:49;96965.81;;;16.84;70.67
13867;BME280;7003;46.982;15.248;2023-05-10T13:11:20;96980.00;;;16.84;72.70
13867;BME280;7003;46.982;15.248;2023-05-10T13:13:48;96973.03;;;16.76;74.89
13867;BME280;7003;46.982;15.248;2023-05-10T13:16:16;96976.50;;;16.80;76.09
13867;BME280;7003;46.982;15.248;2023-05-10T13:18:44;96973.81;;;16.80;77.78